sensor_id;sensor_type;location;lat;lon;timestamp;P1;durP1;ratioP1;P2;durP2;ratioP2
9322;SDS011;4700;48.822;9.270;2022-07-09T00:02:09;4.30;;;4.00;;
9322;SDS011;4700;48.822;9.270;2022-07-09T00:04:55;3.50;;;3.20;;
9322;SDS011;4700;48.822;9.270;2022-07-09T00:07:41;3.60;;;3.30;;
9322;SDS011;4700;48.822;9.270;2022-07-09T00:10:28;4.97;;;4.00;;
9322;SDS011;4700;48.822;9.270;2022-07-09T00:13:14;4.13;;;3.40;;
9322;SDS011;4700;48.822;9.270;2022-07-09T00:16:00;4.47;;;4.07;;
9322;SDS011;4700;48.822;9.270;2022-07-09T00:18:46;4.93;;;3.50;;
9322;SDS011;4700;48.822;9.270;2022-07-09T00:21:32;5.57;;;4.00;;
9322;SDS011;4700;48.822;9.270;2022-07-09T00:24:17;4.00;;;3.53;;
9322;SDS011;4700;48.822;9.270;2022-07-09T00:27:05;4.70;;;3.63;;
9322;SDS011;4700;48.822;9.270;2022-07-09T00:29:51;5.10;;;3.73;;
9322;SDS011;4700;48.822;9.270;2022-07-09T00:32:37;5.63;;;4.47;;
9322;SDS011;4700;48.822;9.270;2022-07-09T00:35:23;5.30;;;3.93;;
9322;SDS011;4700;48.822;9.270;2022-07-09T00:38:10;5.80;;;3.57;;
9322;SDS011;4700;48.822;9.270;2022-07-09T00:40:56;5.47;;;4.10;;
9322;SDS011;4700;48.822;9.270;2022-07-09T00:43:23;4.23;;;3.83;;
9322;SDS011;4700;48.822;9.270;2022-07-09T00:46:09;4.60;;;4.20;;
9322;SDS011;4700;48.822;9.270;2022-07-09T00:48:55;9.30;;;4.80;;
9322;SDS011;4700;48.822;9.270;2022-07-09T00:51:40;7.03;;;4.33;;
9322;SDS011;4700;48.822;9.270;2022-07-09T00:54:26;6.63;;;4.60;;
9322;SDS011;4700;48.822;9.270;2022-07-09T00:57:12;5.73;;;4.57;;
9322;SDS011;4700;48.822;9.270;2022-07-09T00:59:59;5.60;;;4.47;;
9322;SDS011;4700;48.822;9.270;2022-07-09T01:02:45;4.90;;;4.50;;
9322;SDS011;4700;48.822;9.270;2022-07-09T01:05:32;5.07;;;3.93;;
9322;SDS011;4700;48.822;9.270;2022-07-09T01:08:19;4.90;;;4.50;;
9322;SDS011;4700;48.822;9.270;2022-07-09T01:11:05;4.43;;;3.50;;
9322;SDS011;4700;48.822;9.270;2022-07-09T01:13:51;5.00;;;4.50;;
9322;SDS011;4700;48.822;9.270;2022-07-09T01:16:38;7.83;;;5.13;;
9322;SDS011;4700;48.822;9.270;2022-07-09T01:19:27;5.40;;;4.37;;
9322;SDS011;4700;48.822;9.270;2022-07-09T01:22:16;4.97;;;4.47;;
9322;SDS011;4700;48.822;9.270;2022-07-09T01:25:01;4.87;;;4.30;;
9322;SDS011;4700;48.822;9.270;2022-07-09T01:27:53;5.57;;;4.50;;
9322;SDS011;4700;48.822;9.270;2022-07-09T01:30:39;5.03;;;4.63;;
9322;SDS011;4700;48.822;9.270;2022-07-09T01:33:26;5.60;;;5.00;;
9322;SDS011;4700;48.822;9.270;2022-07-09T01:36:12;4.33;;;4.03;;
9322;SDS011;4700;48.822;9.270;2022-07-09T01:38:59;4.20;;;3.80;;
9322;SDS011;4700;48.822;9.270;2022-07-09T01:41:44;4.87;;;4.40;;
9322;SDS011;4700;48.822;9.270;2022-07-09T01:44:30;5.70;;;5.07;;
9322;SDS011;4700;48.822;9.270;2022-07-09T01:47:16;4.60;;;4.20;;
9322;SDS011;4700;48.822;9.270;2022-07-09T01:50:02;5.00;;;4.50;;
9322;SDS011;4700;48.822;9.270;2022-07-09T01:52:48;4.50;;;3.93;;
9322;SDS011;4700;48.822;9.270;2022-07-09T01:55:36;4.63;;;4.17;;
9322;SDS011;4700;48.822;9.270;2022-07-09T01:58:21;8.33;;;4.97;;
9322;SDS011;4700;48.822;9.270;2022-07-09T02:01:10;4.40;;;4.00;;
9322;SDS011;4700;48.822;9.270;2022-07-09T02:03:57;6.60;;;4.33;;
9322;SDS011;4700;48.822;9.270;2022-07-09T02:06:45;5.33;;;4.30;;
9322;SDS011;4700;48.822;9.270;2022-07-09T02:09:30;4.93;;;4.30;;
9322;SDS011;4700;48.822;9.270;2022-07-09T02:12:17;5.20;;;4.43;;
9322;SDS011;4700;48.822;9.270;2022-07-09T02:15:04;6.50;;;4.63;;
9322;SDS011;4700;48.822;9.270;2022-07-09T02:17:51;4.60;;;4.23;;
9322;SDS011;4700;48.822;9.270;2022-07-09T02:20:37;4.33;;;4.03;;
9322;SDS011;4700;48.822;9.270;2022-07-09T02:23:22;3.90;;;3.60;;
9322;SDS011;4700;48.822;9.270;2022-07-09T02:26:08;4.90;;;4.50;;
9322;SDS011;4700;48.822;9.270;2022-07-09T02:28:56;5.30;;;4.80;;
9322;SDS011;4700;48.822;9.270;2022-07-09T02:31:41;5.93;;;4.27;;
9322;SDS011;4700;48.822;9.270;2022-07-09T02:34:27;3.63;;;3.33;;
9322;SDS011;4700;48.822;9.270;2022-07-09T02:37:13;4.10;;;3.80;;
9322;SDS011;4700;48.822;9.270;2022-07-09T02:39:58;7.33;;;4.03;;
9322;SDS011;4700;48.822;9.270;2022-07-09T02:42:44;6.17;;;4.70;;
9322;SDS011;4700;48.822;9.270;2022-07-09T02:45:31;5.67;;;4.97;;
9322;SDS011;4700;48.822;9.270;2022-07-09T02:48:17;4.90;;;4.17;;
9322;SDS011;4700;48.822;9.270;2022-07-09T02:51:03;4.47;;;4.07;;
9322;SDS011;4700;48.822;9.270;2022-07-09T02:53:49;4.30;;;3.90;;
9322;SDS011;4700;48.822;9.270;2022-07-09T02:56:35;6.33;;;5.83;;
9322;SDS011;4700;48.822;9.270;2022-07-09T02:59:21;4.43;;;4.03;;
9322;SDS011;4700;48.822;9.270;2022-07-09T03:02:08;5.83;;;4.03;;
9322;SDS011;4700;48.822;9.270;2022-07-09T03:04:54;4.30;;;4.00;;
9322;SDS011;4700;48.822;9.270;2022-07-09T03:07:39;4.93;;;4.50;;
9322;SDS011;4700;48.822;9.270;2022-07-09T03:10:25;4.90;;;4.47;;
9322;SDS011;4700;48.822;9.270;2022-07-09T03:13:11;5.13;;;4.47;;
9322;SDS011;4700;48.822;9.270;2022-07-09T03:15:57;8.40;;;5.83;;
9322;SDS011;4700;48.822;9.270;2022-07-09T03:18:44;5.10;;;4.63;;
9322;SDS011;4700;48.822;9.270;2022-07-09T03:21:30;5.83;;;4.37;;
9322;SDS011;4700;48.822;9.270;2022-07-09T03:24:19;5.47;;;5.00;;
9322;SDS011;4700;48.822;9.270;2022-07-09T03:27:05;6.30;;;5.10;;
9322;SDS011;4700;48.822;9.270;2022-07-09T03:29:51;6.00;;;4.73;;
9322;SDS011;4700;48.822;9.270;2022-07-09T03:32:36;6.73;;;5.40;;
9322;SDS011;4700;48.822;9.270;2022-07-09T03:35:23;9.53;;;5.60;;
9322;SDS011;4700;48.822;9.270;2022-07-09T03:38:09;5.60;;;4.43;;
9322;SDS011;4700;48.822;9.270;2022-07-09T03:40:55;7.40;;;4.90;;
9322;SDS011;4700;48.822;9.270;2022-07-09T03:43:41;5.03;;;4.63;;
9322;SDS011;4700;48.822;9.270;2022-07-09T03:46:26;6.93;;;4.90;;
9322;SDS011;4700;48.822;9.270;2022-07-09T03:49:12;5.43;;;4.93;;
9322;SDS011;4700;48.822;9.270;2022-07-09T03:51:59;6.33;;;5.20;;
9322;SDS011;4700;48.822;9.270;2022-07-09T03:54:45;7.30;;;5.73;;
9322;SDS011;4700;48.822;9.270;2022-07-09T03:57:34;5.43;;;4.93;;
9322;SDS011;4700;48.822;9.270;2022-07-09T04:00:20;6.70;;;5.50;;
9322;SDS011;4700;48.822;9.270;2022-07-09T04:03:05;5.30;;;4.57;;
9322;SDS011;4700;48.822;9.270;2022-07-09T04:05:51;5.63;;;5.13;;
9322;SDS011;4700;48.822;9.270;2022-07-09T04:08:38;6.43;;;5.63;;
9322;SDS011;4700;48.822;9.270;2022-07-09T04:11:24;6.00;;;5.00;;
9322;SDS011;4700;48.822;9.270;2022-07-09T04:14:09;5.93;;;5.33;;
9322;SDS011;4700;48.822;9.270;2022-07-09T04:16:55;6.70;;;6.30;;
9322;SDS011;4700;48.822;9.270;2022-07-09T04:19:41;5.57;;;5.17;;
9322;SDS011;4700;48.822;9.270;2022-07-09T04:22:27;6.30;;;5.70;;
9322;SDS011;4700;48.822;9.270;2022-07-09T04:25:14;6.83;;;6.23;;
9322;SDS011;4700;48.822;9.270;2022-07-09T04:28:00;4.90;;;4.60;;
9322;SDS011;4700;48.822;9.270;2022-07-09T04:30:46;6.00;;;5.50;;
9322;SDS011;4700;48.822;9.270;2022-07-09T04:33:32;5.50;;;5.10;;
9322;SDS011;4700;48.822;9.270;2022-07-09T04:36:17;6.10;;;5.60;;
9322;SDS011;4700;48.822;9.270;2022-07-09T04:39:03;6.13;;;4.50;;
9322;SDS011;4700;48.822;9.270;2022-07-09T04:41:50;5.43;;;4.80;;
9322;SDS011;4700;48.822;9.270;2022-07-09T04:44:36;4.83;;;4.43;;
9322;SDS011;4700;48.822;9.270;2022-07-09T04:47:22;5.93;;;3.90;;
9322;SDS011;4700;48.822;9.270;2022-07-09T04:50:08;4.90;;;4.50;;
9322;SDS011;4700;48.822;9.270;2022-07-09T04:52:54;4.77;;;4.33;;
9322;SDS011;4700;48.822;9.270;2022-07-09T04:55:40;5.43;;;4.73;;
9322;SDS011;4700;48.822;9.270;2022-07-09T04:58:28;5.60;;;4.70;;
9322;SDS011;4700;48.822;9.270;2022-07-09T05:01:13;5.47;;;4.50;;
9322;SDS011;4700;48.822;9.270;2022-07-09T05:03:59;5.23;;;4.70;;
9322;SDS011;4700;48.822;9.270;2022-07-09T05:06:45;6.57;;;4.70;;
9322;SDS011;4700;48.822;9.270;2022-07-09T05:09:33;6.90;;;6.30;;
9322;SDS011;4700;48.822;9.270;2022-07-09T05:12:19;5.03;;;4.33;;
9322;SDS011;4700;48.822;9.270;2022-07-09T05:15:06;5.20;;;4.80;;
9322;SDS011;4700;48.822;9.270;2022-07-09T05:17:53;6.10;;;4.57;;
9322;SDS011;4700;48.822;9.270;2022-07-09T05:20:39;5.10;;;4.60;;
9322;SDS011;4700;48.822;9.270;2022-07-09T05:23:26;5.10;;;3.83;;
9322;SDS011;4700;48.822;9.270;2022-07-09T05:26:12;4.87;;;4.40;;
9322;SDS011;4700;48.822;9.270;2022-07-09T05:28:57;5.27;;;3.83;;
9322;SDS011;4700;48.822;9.270;2022-07-09T05:31:48;5.33;;;4.83;;
9322;SDS011;4700;48.822;9.270;2022-07-09T05:34:33;6.30;;;4.40;;
9322;SDS011;4700;48.822;9.270;2022-07-09T05:37:19;5.73;;;5.20;;
9322;SDS011;4700;48.822;9.270;2022-07-09T05:40:05;5.93;;;4.70;;
9322;SDS011;4700;48.822;9.270;2022-07-09T05:42:51;5.57;;;5.00;;
9322;SDS011;4700;48.822;9.270;2022-07-09T05:45:37;5.63;;;4.70;;
9322;SDS011;4700;48.822;9.270;2022-07-09T05:48:24;5.53;;;5.03;;
9322;SDS011;4700;48.822;9.270;2022-07-09T05:51:10;6.53;;;4.90;;
9322;SDS011;4700;48.822;9.270;2022-07-09T05:53:56;5.00;;;4.60;;
9322;SDS011;4700;48.822;9.270;2022-07-09T05:56:42;6.90;;;4.73;;
9322;SDS011;4700;48.822;9.270;2022-07-09T05:59:28;6.40;;;5.33;;
9322;SDS011;4700;48.822;9.270;2022-07-09T06:02:13;6.13;;;4.73;;
9322;SDS011;4700;48.822;9.270;2022-07-09T06:05:01;4.77;;;4.37;;
9322;SDS011;4700;48.822;9.270;2022-07-09T06:07:46;5.70;;;4.23;;
9322;SDS011;4700;48.822;9.270;2022-07-09T06:10:32;4.23;;;3.20;;
9322;SDS011;4700;48.822;9.270;2022-07-09T06:13:17;7.17;;;3.20;;
9322;SDS011;4700;48.822;9.270;2022-07-09T06:16:03;3.43;;;3.10;;
9322;SDS011;4700;48.822;9.270;2022-07-09T06:18:50;4.87;;;2.67;;
9322;SDS011;4700;48.822;9.270;2022-07-09T06:21:37;3.47;;;3.17;;
9322;SDS011;4700;48.822;9.270;2022-07-09T06:24:23;3.80;;;2.40;;
9322;SDS011;4700;48.822;9.270;2022-07-09T06:27:09;6.67;;;2.83;;
9322;SDS011;4700;48.822;9.270;2022-07-09T06:29:54;3.90;;;2.57;;
9322;SDS011;4700;48.822;9.270;2022-07-09T06:32:40;4.57;;;2.93;;
9322;SDS011;4700;48.822;9.270;2022-07-09T06:35:25;4.03;;;2.60;;
9322;SDS011;4700;48.822;9.270;2022-07-09T06:38:12;4.47;;;2.70;;
9322;SDS011;4700;48.822;9.270;2022-07-09T06:40:58;3.20;;;2.30;;
9322;SDS011;4700;48.822;9.270;2022-07-09T06:43:44;6.50;;;2.70;;
9322;SDS011;4700;48.822;9.270;2022-07-09T06:46:30;6.10;;;2.60;;
9322;SDS011;4700;48.822;9.270;2022-07-09T06:49:15;2.50;;;2.30;;
9322;SDS011;4700;48.822;9.270;2022-07-09T06:52:01;4.83;;;2.27;;
9322;SDS011;4700;48.822;9.270;2022-07-09T06:54:49;2.30;;;2.10;;
9322;SDS011;4700;48.822;9.270;2022-07-09T06:57:35;4.90;;;2.30;;
9322;SDS011;4700;48.822;9.270;2022-07-09T07:00:21;2.63;;;1.90;;
9322;SDS011;4700;48.822;9.270;2022-07-09T07:03:07;4.90;;;2.63;;
9322;SDS011;4700;48.822;9.270;2022-07-09T07:05:53;3.13;;;2.20;;
9322;SDS011;4700;48.822;9.270;2022-07-09T07:08:38;3.70;;;2.00;;
9322;SDS011;4700;48.822;9.270;2022-07-09T07:11:25;2.67;;;2.10;;
9322;SDS011;4700;48.822;9.270;2022-07-09T07:14:11;5.87;;;2.80;;
9322;SDS011;4700;48.822;9.270;2022-07-09T07:16:57;3.37;;;2.20;;
9322;SDS011;4700;48.822;9.270;2022-07-09T07:19:43;3.93;;;2.20;;
9322;SDS011;4700;48.822;9.270;2022-07-09T07:22:28;3.57;;;1.60;;
9322;SDS011;4700;48.822;9.270;2022-07-09T07:25:14;4.50;;;1.87;;
9322;SDS011;4700;48.822;9.270;2022-07-09T07:28:01;3.70;;;2.03;;
9322;SDS011;4700;48.822;9.270;2022-07-09T07:30:47;2.70;;;1.87;;
9322;SDS011;4700;48.822;9.270;2022-07-09T07:33:33;2.87;;;1.67;;
9322;SDS011;4700;48.822;9.270;2022-07-09T07:36:19;2.80;;;1.60;;
9322;SDS011;4700;48.822;9.270;2022-07-09T07:39:04;2.70;;;2.13;;
9322;SDS011;4700;48.822;9.270;2022-07-09T07:41:50;2.93;;;1.70;;
9322;SDS011;4700;48.822;9.270;2022-07-09T07:44:37;2.30;;;1.70;;
9322;SDS011;4700;48.822;9.270;2022-07-09T07:47:23;3.33;;;2.00;;
9322;SDS011;4700;48.822;9.270;2022-07-09T07:50:08;3.77;;;2.20;;
9322;SDS011;4700;48.822;9.270;2022-07-09T07:52:55;2.47;;;2.00;;
9322;SDS011;4700;48.822;9.270;2022-07-09T07:55:40;3.10;;;1.80;;
9322;SDS011;4700;48.822;9.270;2022-07-09T07:58:26;4.10;;;2.60;;
9322;SDS011;4700;48.822;9.270;2022-07-09T08:01:14;2.30;;;2.10;;
9322;SDS011;4700;48.822;9.270;2022-07-09T08:04:00;4.20;;;1.90;;
9322;SDS011;4700;48.822;9.270;2022-07-09T08:06:49;2.67;;;1.80;;
9322;SDS011;4700;48.822;9.270;2022-07-09T08:09:34;1.67;;;1.57;;
9322;SDS011;4700;48.822;9.270;2022-07-09T08:12:20;2.40;;;2.03;;
9322;SDS011;4700;48.822;9.270;2022-07-09T08:15:06;2.80;;;2.00;;
9322;SDS011;4700;48.822;9.270;2022-07-09T08:17:54;4.43;;;1.80;;
9322;SDS011;4700;48.822;9.270;2022-07-09T08:20:40;2.90;;;2.40;;
9322;SDS011;4700;48.822;9.270;2022-07-09T08:23:26;3.70;;;2.57;;
9322;SDS011;4700;48.822;9.270;2022-07-09T08:26:12;3.30;;;1.80;;
9322;SDS011;4700;48.822;9.270;2022-07-09T08:28:58;1.90;;;1.70;;
9322;SDS011;4700;48.822;9.270;2022-07-09T08:31:44;6.17;;;2.13;;
9322;SDS011;4700;48.822;9.270;2022-07-09T08:34:32;3.57;;;2.17;;
9322;SDS011;4700;48.822;9.270;2022-07-09T08:37:18;2.83;;;1.83;;
9322;SDS011;4700;48.822;9.270;2022-07-09T08:40:04;5.30;;;2.00;;
9322;SDS011;4700;48.822;9.270;2022-07-09T08:42:50;3.30;;;1.90;;
9322;SDS011;4700;48.822;9.270;2022-07-09T08:45:40;4.50;;;1.93;;
9322;SDS011;4700;48.822;9.270;2022-07-09T08:48:32;4.33;;;2.03;;
9322;SDS011;4700;48.822;9.270;2022-07-09T08:51:19;3.80;;;1.67;;
9322;SDS011;4700;48.822;9.270;2022-07-09T08:54:05;2.53;;;1.60;;
9322;SDS011;4700;48.822;9.270;2022-07-09T08:56:53;3.47;;;1.70;;
9322;SDS011;4700;48.822;9.270;2022-07-09T08:59:39;2.43;;;1.57;;
9322;SDS011;4700;48.822;9.270;2022-07-09T09:02:25;2.27;;;1.40;;
9322;SDS011;4700;48.822;9.270;2022-07-09T09:05:12;3.37;;;1.87;;
9322;SDS011;4700;48.822;9.270;2022-07-09T09:08:00;1.63;;;1.53;;
9322;SDS011;4700;48.822;9.270;2022-07-09T09:11:02;2.40;;;1.60;;
9322;SDS011;4700;48.822;9.270;2022-07-09T09:13:48;2.43;;;1.60;;
9322;SDS011;4700;48.822;9.270;2022-07-09T09:16:41;3.27;;;1.37;;
9322;SDS011;4700;48.822;9.270;2022-07-09T09:19:27;2.50;;;1.53;;
9322;SDS011;4700;48.822;9.270;2022-07-09T09:22:15;4.37;;;1.70;;
9322;SDS011;4700;48.822;9.270;2022-07-09T09:25:06;2.93;;;1.50;;
9322;SDS011;4700;48.822;9.270;2022-07-09T09:27:53;2.00;;;1.20;;
9322;SDS011;4700;48.822;9.270;2022-07-09T09:30:40;2.30;;;1.77;;
9322;SDS011;4700;48.822;9.270;2022-07-09T09:33:28;1.30;;;1.20;;
9322;SDS011;4700;48.822;9.270;2022-07-09T09:36:25;2.03;;;1.30;;
9322;SDS011;4700;48.822;9.270;2022-07-09T09:39:16;2.47;;;1.40;;
9322;SDS011;4700;48.822;9.270;2022-07-09T09:42:05;3.17;;;1.63;;
9322;SDS011;4700;48.822;9.270;2022-07-09T09:44:54;4.60;;;1.80;;
9322;SDS011;4700;48.822;9.270;2022-07-09T09:47:45;1.87;;;1.30;;
9322;SDS011;4700;48.822;9.270;2022-07-09T09:50:31;1.77;;;1.30;;
9322;SDS011;4700;48.822;9.270;2022-07-09T09:53:18;2.10;;;1.30;;
9322;SDS011;4700;48.822;9.270;2022-07-09T09:56:06;1.93;;;1.50;;
9322;SDS011;4700;48.822;9.270;2022-07-09T09:58:54;2.20;;;1.27;;
9322;SDS011;4700;48.822;9.270;2022-07-09T10:01:41;1.60;;;1.30;;
9322;SDS011;4700;48.822;9.270;2022-07-09T10:04:28;2.40;;;1.60;;
9322;SDS011;4700;48.822;9.270;2022-07-09T10:07:14;1.80;;;1.20;;
9322;SDS011;4700;48.822;9.270;2022-07-09T10:10:04;1.30;;;1.20;;
9322;SDS011;4700;48.822;9.270;2022-07-09T10:12:51;2.60;;;1.70;;
9322;SDS011;4700;48.822;9.270;2022-07-09T10:15:38;2.13;;;1.40;;
9322;SDS011;4700;48.822;9.270;2022-07-09T10:18:35;4.07;;;1.57;;
9322;SDS011;4700;48.822;9.270;2022-07-09T10:21:31;4.40;;;1.83;;
9322;SDS011;4700;48.822;9.270;2022-07-09T10:24:23;6.53;;;2.03;;
9322;SDS011;4700;48.822;9.270;2022-07-09T10:27:09;3.53;;;1.70;;
9322;SDS011;4700;48.822;9.270;2022-07-09T10:29:56;3.30;;;1.53;;
9322;SDS011;4700;48.822;9.270;2022-07-09T10:32:44;2.30;;;1.20;;
9322;SDS011;4700;48.822;9.270;2022-07-09T10:35:45;4.10;;;1.80;;
9322;SDS011;4700;48.822;9.270;2022-07-09T10:38:33;2.10;;;1.80;;
9322;SDS011;4700;48.822;9.270;2022-07-09T10:41:23;1.83;;;1.70;;
9322;SDS011;4700;48.822;9.270;2022-07-09T10:44:08;1.90;;;1.70;;
9322;SDS011;4700;48.822;9.270;2022-07-09T10:46:57;3.67;;;2.03;;
9322;SDS011;4700;48.822;9.270;2022-07-09T10:49:44;2.40;;;1.97;;
9322;SDS011;4700;48.822;9.270;2022-07-09T10:52:30;4.63;;;1.53;;
9322;SDS011;4700;48.822;9.270;2022-07-09T10:55:16;2.70;;;1.50;;
9322;SDS011;4700;48.822;9.270;2022-07-09T10:58:02;1.80;;;1.70;;
9322;SDS011;4700;48.822;9.270;2022-07-09T11:00:54;2.20;;;2.00;;
9322;SDS011;4700;48.822;9.270;2022-07-09T11:03:41;2.50;;;1.53;;
9322;SDS011;4700;48.822;9.270;2022-07-09T11:06:28;2.57;;;1.50;;
9322;SDS011;4700;48.822;9.270;2022-07-09T11:09:14;1.57;;;1.40;;
9322;SDS011;4700;48.822;9.270;2022-07-09T11:12:00;1.50;;;1.20;;
9322;SDS011;4700;48.822;9.270;2022-07-09T11:14:46;1.40;;;1.30;;
9322;SDS011;4700;48.822;9.270;2022-07-09T11:17:33;2.70;;;1.30;;
9322;SDS011;4700;48.822;9.270;2022-07-09T11:20:18;1.43;;;1.33;;
9322;SDS011;4700;48.822;9.270;2022-07-09T11:23:06;4.13;;;2.33;;
9322;SDS011;4700;48.822;9.270;2022-07-09T11:25:54;2.77;;;2.20;;
9322;SDS011;4700;48.822;9.270;2022-07-09T11:28:39;2.70;;;1.83;;
9322;SDS011;4700;48.822;9.270;2022-07-09T11:31:25;2.43;;;1.50;;
9322;SDS011;4700;48.822;9.270;2022-07-09T11:34:10;3.80;;;1.63;;
9322;SDS011;4700;48.822;9.270;2022-07-09T11:36:57;3.17;;;1.40;;
9322;SDS011;4700;48.822;9.270;2022-07-09T11:39:49;2.20;;;1.87;;
9322;SDS011;4700;48.822;9.270;2022-07-09T11:42:41;1.50;;;1.20;;
9322;SDS011;4700;48.822;9.270;2022-07-09T11:45:26;1.93;;;1.43;;
9322;SDS011;4700;48.822;9.270;2022-07-09T11:48:15;3.47;;;1.37;;
9322;SDS011;4700;48.822;9.270;2022-07-09T11:51:00;2.10;;;1.20;;
9322;SDS011;4700;48.822;9.270;2022-07-09T11:53:49;1.63;;;1.50;;
9322;SDS011;4700;48.822;9.270;2022-07-09T11:56:43;1.90;;;1.80;;
9322;SDS011;4700;48.822;9.270;2022-07-09T11:59:31;3.80;;;1.63;;
9322;SDS011;4700;48.822;9.270;2022-07-09T12:02:24;2.23;;;1.53;;
9322;SDS011;4700;48.822;9.270;2022-07-09T12:05:11;3.10;;;1.53;;
9322;SDS011;4700;48.822;9.270;2022-07-09T12:07:58;1.17;;;1.10;;
9322;SDS011;4700;48.822;9.270;2022-07-09T12:10:45;2.60;;;1.33;;
9322;SDS011;4700;48.822;9.270;2022-07-09T12:13:32;2.20;;;1.60;;
9322;SDS011;4700;48.822;9.270;2022-07-09T12:16:18;1.83;;;1.70;;
9322;SDS011;4700;48.822;9.270;2022-07-09T12:19:04;2.50;;;1.60;;
9322;SDS011;4700;48.822;9.270;2022-07-09T12:21:49;1.40;;;1.30;;
9322;SDS011;4700;48.822;9.270;2022-07-09T12:24:35;2.47;;;1.53;;
9322;SDS011;4700;48.822;9.270;2022-07-09T12:27:21;2.50;;;1.30;;
9322;SDS011;4700;48.822;9.270;2022-07-09T12:30:08;3.00;;;1.53;;
9322;SDS011;4700;48.822;9.270;2022-07-09T12:32:54;3.27;;;2.97;;
9322;SDS011;4700;48.822;9.270;2022-07-09T12:35:42;1.67;;;1.23;;
9322;SDS011;4700;48.822;9.270;2022-07-09T12:38:28;3.20;;;1.00;;
9322;SDS011;4700;48.822;9.270;2022-07-09T12:41:13;4.23;;;1.77;;
9322;SDS011;4700;48.822;9.270;2022-07-09T12:43:59;1.83;;;0.90;;
9322;SDS011;4700;48.822;9.270;2022-07-09T12:46:46;2.40;;;1.40;;
9322;SDS011;4700;48.822;9.270;2022-07-09T12:49:32;2.20;;;1.50;;
9322;SDS011;4700;48.822;9.270;2022-07-09T12:52:17;1.90;;;1.37;;
9322;SDS011;4700;48.822;9.270;2022-07-09T12:55:03;1.97;;;1.30;;
9322;SDS011;4700;48.822;9.270;2022-07-09T12:57:50;2.43;;;1.30;;
9322;SDS011;4700;48.822;9.270;2022-07-09T13:00:36;2.17;;;1.50;;
9322;SDS011;4700;48.822;9.270;2022-07-09T13:03:25;1.67;;;1.50;;
9322;SDS011;4700;48.822;9.270;2022-07-09T13:06:11;2.50;;;1.67;;
9322;SDS011;4700;48.822;9.270;2022-07-09T13:09:10;1.27;;;1.10;;
9322;SDS011;4700;48.822;9.270;2022-07-09T13:11:58;1.93;;;1.27;;
9322;SDS011;4700;48.822;9.270;2022-07-09T13:14:43;1.33;;;1.10;;
9322;SDS011;4700;48.822;9.270;2022-07-09T13:17:29;1.70;;;1.20;;
9322;SDS011;4700;48.822;9.270;2022-07-09T13:20:16;1.70;;;1.40;;
9322;SDS011;4700;48.822;9.270;2022-07-09T13:23:05;2.77;;;1.43;;
9322;SDS011;4700;48.822;9.270;2022-07-09T13:25:51;1.43;;;0.90;;
9322;SDS011;4700;48.822;9.270;2022-07-09T13:28:37;2.47;;;1.53;;
9322;SDS011;4700;48.822;9.270;2022-07-09T13:31:22;2.60;;;1.77;;
9322;SDS011;4700;48.822;9.270;2022-07-09T13:34:08;1.73;;;1.60;;
9322;SDS011;4700;48.822;9.270;2022-07-09T13:36:55;2.00;;;1.27;;
9322;SDS011;4700;48.822;9.270;2022-07-09T13:39:40;0.90;;;0.90;;
9322;SDS011;4700;48.822;9.270;2022-07-09T13:42:26;1.23;;;1.10;;
9322;SDS011;4700;48.822;9.270;2022-07-09T13:45:12;1.77;;;1.30;;
9322;SDS011;4700;48.822;9.270;2022-07-09T13:47:58;1.87;;;1.13;;
9322;SDS011;4700;48.822;9.270;2022-07-09T13:50:45;1.30;;;1.20;;
9322;SDS011;4700;48.822;9.270;2022-07-09T13:53:32;2.97;;;1.40;;
9322;SDS011;4700;48.822;9.270;2022-07-09T13:56:18;4.47;;;1.30;;
9322;SDS011;4700;48.822;9.270;2022-07-09T13:59:04;1.43;;;1.30;;
9322;SDS011;4700;48.822;9.270;2022-07-09T14:01:50;1.67;;;1.57;;
9322;SDS011;4700;48.822;9.270;2022-07-09T14:04:37;1.33;;;1.17;;
9322;SDS011;4700;48.822;9.270;2022-07-09T14:07:22;1.83;;;1.20;;
9322;SDS011;4700;48.822;9.270;2022-07-09T14:10:10;1.50;;;1.40;;
9322;SDS011;4700;48.822;9.270;2022-07-09T14:12:56;2.27;;;1.40;;
9322;SDS011;4700;48.822;9.270;2022-07-09T14:15:42;2.20;;;1.30;;
9322;SDS011;4700;48.822;9.270;2022-07-09T14:18:27;4.60;;;1.33;;
9322;SDS011;4700;48.822;9.270;2022-07-09T14:21:13;1.53;;;1.13;;
9322;SDS011;4700;48.822;9.270;2022-07-09T14:23:59;1.63;;;1.47;;
9322;SDS011;4700;48.822;9.270;2022-07-09T14:26:49;1.87;;;1.77;;
9322;SDS011;4700;48.822;9.270;2022-07-09T14:29:36;1.80;;;1.57;;
9322;SDS011;4700;48.822;9.270;2022-07-09T14:32:23;2.50;;;2.07;;
9322;SDS011;4700;48.822;9.270;2022-07-09T14:35:08;1.97;;;1.77;;
9322;SDS011;4700;48.822;9.270;2022-07-09T14:37:54;1.80;;;1.57;;
9322;SDS011;4700;48.822;9.270;2022-07-09T14:40:40;1.77;;;1.67;;
9322;SDS011;4700;48.822;9.270;2022-07-09T14:43:27;4.13;;;2.07;;
9322;SDS011;4700;48.822;9.270;2022-07-09T14:45:58;1.40;;;1.30;;
9322;SDS011;4700;48.822;9.270;2022-07-09T14:48:44;2.43;;;2.23;;
9322;SDS011;4700;48.822;9.270;2022-07-09T14:51:30;2.37;;;2.07;;
9322;SDS011;4700;48.822;9.270;2022-07-09T14:54:16;1.60;;;1.50;;
9322;SDS011;4700;48.822;9.270;2022-07-09T14:57:02;2.47;;;1.90;;
9322;SDS011;4700;48.822;9.270;2022-07-09T14:59:51;1.63;;;1.53;;
9322;SDS011;4700;48.822;9.270;2022-07-09T15:02:37;1.80;;;1.63;;
9322;SDS011;4700;48.822;9.270;2022-07-09T15:05:23;3.17;;;1.60;;
9322;SDS011;4700;48.822;9.270;2022-07-09T15:08:08;2.10;;;1.97;;
9322;SDS011;4700;48.822;9.270;2022-07-09T15:10:54;2.20;;;1.57;;
9322;SDS011;4700;48.822;9.270;2022-07-09T15:13:40;3.90;;;1.50;;
9322;SDS011;4700;48.822;9.270;2022-07-09T15:16:27;2.07;;;1.73;;
9322;SDS011;4700;48.822;9.270;2022-07-09T15:19:13;2.30;;;1.90;;
9322;SDS011;4700;48.822;9.270;2022-07-09T15:22:00;2.33;;;2.07;;
9322;SDS011;4700;48.822;9.270;2022-07-09T15:24:46;1.30;;;1.20;;
9322;SDS011;4700;48.822;9.270;2022-07-09T15:27:31;1.80;;;1.67;;
9322;SDS011;4700;48.822;9.270;2022-07-09T15:30:19;1.70;;;1.60;;
9322;SDS011;4700;48.822;9.270;2022-07-09T15:33:06;5.03;;;2.20;;
9322;SDS011;4700;48.822;9.270;2022-07-09T15:35:52;2.20;;;1.73;;
9322;SDS011;4700;48.822;9.270;2022-07-09T15:38:38;2.60;;;1.77;;
9322;SDS011;4700;48.822;9.270;2022-07-09T15:41:24;1.87;;;1.67;;
9322;SDS011;4700;48.822;9.270;2022-07-09T15:44:10;3.73;;;2.07;;
9322;SDS011;4700;48.822;9.270;2022-07-09T15:46:57;4.10;;;1.80;;
9322;SDS011;4700;48.822;9.270;2022-07-09T15:49:44;1.77;;;1.67;;
9322;SDS011;4700;48.822;9.270;2022-07-09T15:52:30;3.73;;;2.13;;
9322;SDS011;4700;48.822;9.270;2022-07-09T15:55:17;1.97;;;1.80;;
9322;SDS011;4700;48.822;9.270;2022-07-09T15:58:03;1.80;;;1.70;;
9322;SDS011;4700;48.822;9.270;2022-07-09T16:00:48;2.20;;;2.00;;
9322;SDS011;4700;48.822;9.270;2022-07-09T16:03:34;3.10;;;1.90;;
9322;SDS011;4700;48.822;9.270;2022-07-09T16:06:21;2.80;;;1.90;;
9322;SDS011;4700;48.822;9.270;2022-07-09T16:09:07;2.20;;;2.00;;
9322;SDS011;4700;48.822;9.270;2022-07-09T16:11:52;7.73;;;2.50;;
9322;SDS011;4700;48.822;9.270;2022-07-09T16:14:56;2.00;;;1.90;;
9322;SDS011;4700;48.822;9.270;2022-07-09T16:17:41;2.20;;;1.60;;
9322;SDS011;4700;48.822;9.270;2022-07-09T16:20:27;2.10;;;1.90;;
9322;SDS011;4700;48.822;9.270;2022-07-09T16:23:14;2.80;;;2.60;;
9322;SDS011;4700;48.822;9.270;2022-07-09T16:26:00;4.67;;;2.33;;
9322;SDS011;4700;48.822;9.270;2022-07-09T16:28:45;2.67;;;2.37;;
9322;SDS011;4700;48.822;9.270;2022-07-09T16:31:31;2.23;;;2.03;;
9322;SDS011;4700;48.822;9.270;2022-07-09T16:34:17;3.07;;;2.20;;
9322;SDS011;4700;48.822;9.270;2022-07-09T16:37:03;3.00;;;2.47;;
9322;SDS011;4700;48.822;9.270;2022-07-09T16:39:50;3.93;;;2.17;;
9322;SDS011;4700;48.822;9.270;2022-07-09T16:42:36;3.73;;;2.60;;
9322;SDS011;4700;48.822;9.270;2022-07-09T16:45:22;3.20;;;2.57;;
9322;SDS011;4700;48.822;9.270;2022-07-09T16:48:08;2.50;;;2.10;;
9322;SDS011;4700;48.822;9.270;2022-07-09T16:50:54;2.57;;;2.40;;
9322;SDS011;4700;48.822;9.270;2022-07-09T16:53:39;2.90;;;2.00;;
9322;SDS011;4700;48.822;9.270;2022-07-09T16:56:27;2.50;;;2.30;;
9322;SDS011;4700;48.822;9.270;2022-07-09T16:59:12;2.70;;;2.27;;
9322;SDS011;4700;48.822;9.270;2022-07-09T17:01:58;2.47;;;2.27;;
9322;SDS011;4700;48.822;9.270;2022-07-09T17:04:44;2.90;;;2.40;;
9322;SDS011;4700;48.822;9.270;2022-07-09T17:07:29;2.40;;;2.23;;
9322;SDS011;4700;48.822;9.270;2022-07-09T17:10:15;3.30;;;2.40;;
9322;SDS011;4700;48.822;9.270;2022-07-09T17:13:02;4.37;;;1.90;;
9322;SDS011;4700;48.822;9.270;2022-07-09T17:15:47;2.10;;;2.00;;